Time;durP1;ratioP1;P1;durP2;ratioP2;P2;SDS_P1;SDS_P2;PMS_P1;PMS_P2;Temp;Humidity;BMP_temperature;BMP_pressure;BME280_temperature;BME280_humidity;BME280_pressure;Samples;Min_cycle;Max_cycle;Signal;HPM_P1;HPM_P2
2022/10/02 00:00:45;;;;;;;1.73;0.70;;;10.90;99.90;;;;;;5029399;28;20555;-49
2022/10/02 00:03:20;;;;;;;3.17;0.90;;;11.00;99.90;;;;;;5029031;28;20575;-49
2022/10/02 00:05:51;;;;;;;2.93;0.67;;;11.10;99.90;;;;;;5029566;28;20442;-49
2022/10/02 00:08:24;;;;;;;1.00;0.50;;;11.20;99.90;;;;;;5028981;28;20962;-47
2022/10/02 00:10:55;;;;;;;1.23;0.70;;;11.30;99.90;;;;;;5029188;28;20478;-47
2022/10/02 00:13:27;;;;;;;1.67;0.63;;;11.30;99.90;;;;;;5029334;28;20430;-47
2022/10/02 00:15:55;;;;;;;1.00;0.50;;;11.10;99.90;;;;;;5029043;28;21007;-47
2022/10/02 00:18:28;;;;;;;0.90;0.40;;;11.20;99.90;;;;;;5029296;28;20447;-44
2022/10/02 00:21:01;;;;;;;2.00;0.50;;;11.20;99.90;;;;;;5029144;28;20458;-47
2022/10/02 00:23:36;;;;;;;1.27;0.60;;;11.30;99.90;;;;;;5028737;28;20996;-51
2022/10/02 00:26:07;;;;;;;3.00;0.67;;;11.30;99.90;;;;;;5029437;28;20528;-47
2022/10/02 00:28:42;;;;;;;0.97;0.57;;;11.40;99.90;;;;;;5029292;28;20444;-49
2022/10/02 00:31:23;;;;;;;1.30;0.80;;;11.40;99.90;;;;;;5029448;28;20837;-47
2022/10/02 00:34:00;;;;;;;1.20;0.80;;;11.40;99.90;;;;;;5028901;28;20427;-46
2022/10/02 00:36:39;;;;;;;1.40;0.70;;;11.40;99.90;;;;;;5029092;28;20443;-47
2022/10/02 00:39:22;;;;;;;1.10;0.70;;;11.40;99.90;;;;;;5028758;28;20447;-47
2022/10/02 00:42:25;;;;;;;1.07;0.60;;;11.40;99.90;;;;;;5028882;28;20446;-50
2022/10/02 00:45:16;;;;;;;1.10;0.70;;;11.40;99.90;;;;;;5028463;28;20500;-47
2022/10/02 00:47:51;;;;;;;1.10;0.60;;;11.40;99.90;;;;;;5028467;28;20443;-47
2022/10/02 00:50:34;;;;;;;1.77;0.70;;;11.30;99.90;;;;;;5028732;28;20562;-47
2022/10/02 00:53:08;;;;;;;1.30;0.70;;;11.30;99.90;;;;;;5028645;28;20537;-47
2022/10/02 00:55:48;;;;;;;1.47;0.70;;;11.30;99.90;;;;;;5028667;28;20830;-47
2022/10/02 00:58:30;;;;;;;1.20;0.73;;;11.10;99.90;;;;;;5028591;28;20445;-47
2022/10/02 01:01:05;;;;;;;1.10;0.50;;;11.20;99.90;;;;;;5028549;28;20542;-47
2022/10/02 01:03:37;;;;;;;1.00;0.70;;;11.20;99.90;;;;;;5028312;28;20486;-50
2022/10/02 01:06:04;;;;;;;1.10;0.50;;;11.20;99.90;;;;;;5028462;28;20948;-47
2022/10/02 01:08:33;;;;;;;0.90;0.40;;;11.30;99.90;;;;;;5027992;28;20534;-46
2022/10/02 01:11:02;;;;;;;1.40;0.70;;;11.30;99.90;;;;;;5028433;28;20470;-47
2022/10/02 01:13:29;;;;;;;3.10;0.50;;;11.40;99.90;;;;;;5028497;28;20440;-51
2022/10/02 01:15:59;;;;;;;1.77;0.50;;;11.40;99.90;;;;;;5028146;28;20956;-47
2022/10/02 01:18:27;;;;;;;0.90;0.47;;;11.40;99.90;;;;;;5028440;28;20875;-47
2022/10/02 01:20:59;;;;;;;1.90;0.70;;;11.40;99.90;;;;;;5028180;28;20466;-47
2022/10/02 01:23:33;;;;;;;0.97;0.60;;;11.30;99.90;;;;;;5028269;28;20558;-47
2022/10/02 01:26:02;;;;;;;0.90;0.43;;;11.30;99.90;;;;;;5028198;28;20948;-47
2022/10/02 01:28:29;;;;;;;1.93;0.50;;;11.10;99.90;;;;;;5028616;28;20441;-47
2022/10/02 01:31:01;;;;;;;1.10;0.50;;;11.10;99.90;;;;;;5028069;28;20489;-50
2022/10/02 01:33:28;;;;;;;3.90;0.50;;;11.20;99.90;;;;;;5028053;28;20531;-50
2022/10/02 01:35:55;;;;;;;0.90;0.40;;;11.30;99.90;;;;;;5028382;28;20450;-47
2022/10/02 01:38:23;;;;;;;1.10;0.80;;;11.30;99.90;;;;;;5028222;28;20446;-48
2022/10/02 01:40:51;;;;;;;1.93;0.40;;;11.30;99.90;;;;;;5027912;28;20467;-49
2022/10/02 01:43:21;;;;;;;1.00;0.50;;;11.40;99.90;;;;;;5027859;28;20485;-47
2022/10/02 01:46:07;;;;;;;0.90;0.43;;;11.30;99.90;;;;;;5027783;28;20447;-47
2022/10/02 01:48:47;;;;;;;1.40;0.70;;;11.30;99.90;;;;;;5028381;28;20442;-47
2022/10/02 01:51:29;;;;;;;2.00;0.70;;;11.20;99.90;;;;;;5034794;23;20538;-51
2022/10/02 01:54:05;;;;;;;0.90;0.50;;;10.90;99.90;;;;;;5007543;28;20523;-51
2022/10/02 01:56:38;;;;;;;1.00;0.50;;;10.80;99.90;;;;;;5008462;28;20534;-51
2022/10/02 01:59:15;;;;;;;1.63;0.50;;;11.00;99.90;;;;;;5008020;28;20447;-51
2022/10/02 02:01:52;;;;;;;1.00;0.57;;;11.10;99.90;;;;;;5007775;28;20459;-51
2022/10/02 02:04:24;;;;;;;1.73;0.63;;;11.20;99.90;;;;;;5007883;28;20603;-51
2022/10/02 02:06:59;;;;;;;1.20;0.77;;;11.20;99.90;;;;;;5007898;28;20462;-51
2022/10/02 02:09:33;;;;;;;1.10;0.67;;;11.10;99.90;;;;;;5008283;28;20446;-51
2022/10/02 02:12:07;;;;;;;2.80;0.50;;;11.20;99.90;;;;;;5008213;28;20495;-51
2022/10/02 02:14:41;;;;;;;1.47;0.40;;;11.20;99.90;;;;;;5007804;28;20443;-51
2022/10/02 02:17:12;;;;;;;0.90;0.40;;;11.20;99.90;;;;;;5010309;28;20433;-50
2022/10/02 02:19:45;;;;;;;1.53;0.40;;;11.20;99.90;;;;;;5011574;28;20956;-51
2022/10/02 02:22:17;;;;;;;1.07;0.60;;;11.20;99.90;;;;;;5011304;28;20554;-51
2022/10/02 02:24:51;;;;;;;1.27;0.50;;;11.30;99.90;;;;;;5011232;28;20479;-51
2022/10/02 02:27:22;;;;;;;2.17;0.80;;;11.30;99.90;;;;;;5011189;28;20538;-51
2022/10/02 02:29:54;;;;;;;1.20;0.60;;;11.40;99.90;;;;;;5011115;28;20937;-51
2022/10/02 02:32:27;;;;;;;0.90;0.40;;;11.40;99.90;;;;;;5011421;28;20454;-51
2022/10/02 02:34:58;;;;;;;1.00;0.60;;;11.40;99.90;;;;;;5011215;28;20452;-52
2022/10/02 02:37:27;;;;;;;1.60;0.80;;;11.40;99.90;;;;;;5010984;28;20929;-51
2022/10/02 02:40:00;;;;;;;0.90;0.50;;;11.30;99.90;;;;;;5011240;28;20443;-51
2022/10/02 02:42:31;;;;;;;1.87;0.80;;;11.20;99.90;;;;;;5011018;28;20476;-51
2022/10/02 02:45:04;;;;;;;1.00;0.60;;;11.00;99.90;;;;;;5010689;28;20479;-51
2022/10/02 02:47:39;;;;;;;1.00;0.60;;;10.80;99.90;;;;;;5010930;28;20450;-51
2022/10/02 02:50:10;;;;;;;2.27;0.60;;;10.90;99.90;;;;;;5010504;28;20458;-51
2022/10/02 02:52:43;;;;;;;1.13;0.67;;;10.60;99.90;;;;;;5011364;28;20443;-51
2022/10/02 02:55:14;;;;;;;2.00;0.70;;;10.70;99.90;;;;;;5010642;28;20444;-51
2022/10/02 02:57:45;;;;;;;1.10;0.70;;;10.70;99.90;;;;;;5010820;28;20448;-51
2022/10/02 03:00:15;;;;;;;1.30;0.70;;;10.70;99.90;;;;;;5010505;28;20469;-51
2022/10/02 03:02:42;;;;;;;1.10;0.70;;;10.90;99.90;;;;;;5010573;28;20448;-51
2022/10/02 03:05:14;;;;;;;1.30;0.70;;;11.00;99.90;;;;;;5010496;28;20486;-51
2022/10/02 03:07:49;;;;;;;1.10;0.50;;;11.00;99.90;;;;;;5010472;28;20523;-51
2022/10/02 03:10:20;;;;;;;3.03;0.90;;;11.00;99.90;;;;;;5010426;28;20539;-51
2022/10/02 03:12:58;;;;;;;5.60;1.20;;;11.10;99.90;;;;;;5010522;28;20453;-51
2022/10/02 03:15:37;;;;;;;1.00;0.70;;;11.00;99.90;;;;;;5010525;28;20448;-51
2022/10/02 03:18:29;;;;;;;1.17;0.43;;;11.00;99.90;;;;;;5010398;28;20454;-51
2022/10/02 03:21:07;;;;;;;1.10;0.60;;;10.80;99.90;;;;;;5010427;28;20551;-51
2022/10/02 03:23:41;;;;;;;2.50;0.53;;;10.80;99.90;;;;;;5010328;28;20480;-51
2022/10/02 03:26:16;;;;;;;1.10;0.53;;;10.90;99.90;;;;;;5010692;28;20465;-51
2022/10/02 03:28:49;;;;;;;1.37;0.77;;;11.00;99.90;;;;;;5009271;28;20535;-51
2022/10/02 03:31:19;;;;;;;0.90;0.40;;;10.70;99.90;;;;;;5010349;28;20842;-51
2022/10/02 03:33:47;;;;;;;1.00;0.40;;;10.60;99.90;;;;;;5010144;28;20446;-51
2022/10/02 03:36:16;;;;;;;1.70;0.53;;;10.80;99.90;;;;;;5010136;28;20540;-51
2022/10/02 03:38:44;;;;;;;1.17;0.87;;;10.90;99.90;;;;;;5010118;28;20447;-51
2022/10/02 03:41:11;;;;;;;1.83;0.87;;;11.00;99.90;;;;;;5009941;28;21060;-51
2022/10/02 03:43:38;;;;;;;1.23;0.70;;;11.10;99.90;;;;;;5009488;28;21025;-51
2022/10/02 03:46:05;;;;;;;1.47;1.03;;;11.00;99.90;;;;;;5010339;28;20545;-51
2022/10/02 03:48:33;;;;;;;2.20;0.90;;;11.00;99.90;;;;;;5010272;28;20475;-51
2022/10/02 03:51:00;;;;;;;1.30;0.90;;;10.80;99.90;;;;;;5009850;28;20648;-51
2022/10/02 03:53:33;;;;;;;1.67;1.00;;;10.90;99.90;;;;;;5009764;28;20532;-51
2022/10/02 03:56:05;;;;;;;2.47;1.93;;;11.00;99.90;;;;;;5009694;28;20994;-51
2022/10/02 03:58:33;;;;;;;3.17;2.40;;;10.90;99.90;;;;;;5009838;28;20444;-51
2022/10/02 04:01:04;;;;;;;3.93;3.00;;;11.00;99.90;;;;;;5009903;28;20472;-51
2022/10/02 04:03:37;;;;;;;2.83;1.47;;;11.10;99.90;;;;;;5009773;28;20479;-51
2022/10/02 04:06:09;;;;;;;2.70;2.23;;;10.90;99.90;;;;;;5009633;28;20530;-51
2022/10/02 04:08:39;;;;;;;5.10;2.27;;;10.90;99.90;;;;;;5009458;28;20630;-51
2022/10/02 04:11:10;;;;;;;2.67;2.20;;;11.00;99.90;;;;;;5009661;28;20464;-51
2022/10/02 04:13:39;;;;;;;2.30;2.10;;;10.90;99.90;;;;;;5009276;28;20530;-51
2022/10/02 04:16:12;;;;;;;1.73;1.50;;;10.90;99.90;;;;;;5009640;28;20450;-51
2022/10/02 04:18:46;;;;;;;1.80;1.10;;;11.00;99.90;;;;;;5009508;28;20535;-51
2022/10/02 04:21:20;;;;;;;1.20;1.00;;;11.10;99.90;;;;;;5009307;28;20459;-51
2022/10/02 04:23:52;;;;;;;3.90;1.20;;;11.00;99.90;;;;;;5009466;28;20478;-51
2022/10/02 04:26:25;;;;;;;2.20;1.50;;;11.00;99.90;;;;;;5009693;28;20440;-51
2022/10/02 04:28:56;;;;;;;1.40;0.90;;;10.90;99.90;;;;;;5009349;28;20447;-51
2022/10/02 04:31:26;;;;;;;1.90;1.60;;;10.50;99.90;;;;;;5009255;28;20474;-51
2022/10/02 04:33:59;;;;;;;2.37;0.90;;;10.70;99.90;;;;;;5009025;28;20458;-52
2022/10/02 04:36:39;;;;;;;2.03;1.03;;;10.60;99.90;;;;;;5009476;28;20446;-51
2022/10/02 04:39:22;;;;;;;1.50;1.10;;;10.70;99.90;;;;;;5008572;28;20444;-51
2022/10/02 04:42:00;;;;;;;1.77;1.10;;;10.90;99.90;;;;;;5009009;28;20574;-51
2022/10/02 04:44:41;;;;;;;1.80;1.67;;;11.00;99.90;;;;;;5008767;28;20522;-51
2022/10/02 04:47:25;;;;;;;2.40;1.70;;;10.90;99.90;;;;;;5009261;28;21013;-51
2022/10/02 04:50:08;;;;;;;1.90;1.70;;;10.90;99.90;;;;;;5008970;28;20455;-51
2022/10/02 04:52:47;;;;;;;2.50;2.10;;;10.90;99.90;;;;;;5008968;28;20531;-51
2022/10/02 04:55:45;;;;;;;3.03;1.70;;;10.80;99.90;;;;;;5008794;28;20443;-53
2022/10/02 04:59:07;;;;;;;1.43;1.10;;;10.80;99.90;;;;;;5008962;28;20444;-53
2022/10/02 05:01:50;;;;;;;2.30;1.50;;;11.00;99.90;;;;;;5031583;28;20463;-53
2022/10/02 05:04:51;;;;;;;1.60;1.47;;;11.00;99.90;;;;;;5008887;28;20484;-50
2022/10/02 05:07:41;;;;;;;2.87;2.10;;;11.00;99.90;;;;;;5008667;28;20451;-50
2022/10/02 05:10:38;;;;;;;1.60;1.30;;;11.00;99.90;;;;;;5008646;28;20448;-51
2022/10/02 05:13:15;;;;;;;1.30;1.00;;;10.80;99.90;;;;;;5008504;28;20923;-50
2022/10/02 05:16:08;;;;;;;2.10;1.33;;;10.80;99.90;;;;;;5008628;28;21028;-50
2022/10/02 05:19:01;;;;;;;1.47;1.07;;;10.70;99.90;;;;;;5008579;28;20958;-50
2022/10/02 05:21:46;;;;;;;1.23;1.00;;;10.80;99.90;;;;;;5008901;28;20902;-50
2022/10/02 05:24:44;;;;;;;2.03;1.40;;;10.80;99.90;;;;;;5008451;28;20479;-50
2022/10/02 05:27:27;;;;;;;2.30;1.60;;;10.80;99.90;;;;;;5008320;28;20455;-52
2022/10/02 05:30:08;;;;;;;1.63;1.40;;;10.30;99.90;;;;;;5008704;28;20818;-50
2022/10/02 05:33:10;;;;;;;2.23;1.30;;;10.50;99.90;;;;;;5008834;28;20443;-50
2022/10/02 05:36:05;;;;;;;1.60;1.50;;;10.60;99.90;;;;;;5043102;28;20551;-50
2022/10/02 05:38:49;;;;;;;2.20;1.57;;;10.50;99.90;;;;;;5008206;28;20440;-50
2022/10/02 05:41:23;;;;;;;1.30;1.10;;;10.70;99.90;;;;;;5008355;28;20463;-50
2022/10/02 05:43:57;;;;;;;2.40;1.90;;;10.80;99.90;;;;;;5008110;28;20828;-52
2022/10/02 05:46:26;;;;;;;3.30;2.10;;;10.80;99.90;;;;;;5008388;28;20447;-51
2022/10/02 05:48:58;;;;;;;3.87;2.20;;;10.70;99.90;;;;;;5008379;28;20448;-50
2022/10/02 05:51:35;;;;;;;2.63;1.80;;;10.60;99.90;;;;;;5009122;28;20889;-51
2022/10/02 05:54:06;;;;;;;2.63;2.13;;;10.40;99.90;;;;;;5011443;28;20505;-51
2022/10/02 05:56:39;;;;;;;1.90;1.60;;;10.60;99.90;;;;;;5011708;28;20476;-50
2022/10/02 05:59:13;;;;;;;2.53;2.33;;;10.70;99.90;;;;;;5011730;28;20953;-50
2022/10/02 06:01:44;;;;;;;2.27;1.70;;;10.70;99.90;;;;;;5011859;28;20551;-51
2022/10/02 06:04:17;;;;;;;2.80;2.50;;;10.70;99.90;;;;;;5011274;28;20483;-51
2022/10/02 06:06:50;;;;;;;3.80;3.50;;;10.70;99.90;;;;;;5011283;28;20443;-50
2022/10/02 06:09:20;;;;;;;3.30;3.00;;;10.80;99.90;;;;;;5011605;28;20479;-50
2022/10/02 06:11:55;;;;;;;4.53;3.47;;;10.80;99.90;;;;;;5011603;28;20781;-50
2022/10/02 06:14:26;;;;;;;6.03;4.40;;;10.80;99.90;;;;;;5011233;28;20443;-51
2022/10/02 06:16:58;;;;;;;3.73;3.43;;;10.80;99.90;;;;;;5011154;28;20451;-50
2022/10/02 06:19:29;;;;;;;4.70;3.73;;;10.80;99.90;;;;;;5011512;28;20448;-50
2022/10/02 06:22:04;;;;;;;3.37;3.07;;;10.90;99.90;;;;;;5011199;28;20982;-51
2022/10/02 06:24:36;;;;;;;5.10;4.57;;;10.80;99.90;;;;;;5011127;28;20509;-51
2022/10/02 06:27:10;;;;;;;4.63;3.83;;;10.70;99.90;;;;;;5011322;28;20448;-50
2022/10/02 06:29:42;;;;;;;3.23;2.80;;;10.60;99.90;;;;;;5011243;28;20474;-51
2022/10/02 06:32:19;;;;;;;3.40;3.10;;;10.60;99.90;;;;;;5011211;28;20559;-51
2022/10/02 06:34:46;;;;;;;9.53;5.13;;;10.80;99.90;;;;;;5011081;28;20442;-52
2022/10/02 06:37:37;;;;;;;10.77;5.80;;;10.70;99.90;;;;;;5011559;28;20531;-51
2022/10/02 06:40:23;;;;;;;8.63;5.60;;;10.80;99.90;;;;;;5011264;28;20466;-53
2022/10/02 06:43:00;;;;;;;5.73;4.43;;;10.90;99.90;;;;;;5011007;28;20455;-51
2022/10/02 06:45:35;;;;;;;4.57;4.20;;;11.00;99.90;;;;;;5011063;28;20475;-51
2022/10/02 06:48:07;;;;;;;4.57;4.17;;;10.90;99.90;;;;;;5010848;28;20816;-51
2022/10/02 06:50:46;;;;;;;6.10;5.17;;;10.80;99.90;;;;;;5010947;28;20471;-51
2022/10/02 06:53:27;;;;;;;4.80;4.40;;;10.70;99.90;;;;;;5010799;28;20535;-51
2022/10/02 06:56:03;;;;;;;5.40;4.83;;;10.80;99.90;;;;;;5010876;28;20882;-51
2022/10/02 06:58:51;;;;;;;3.93;3.63;;;10.70;99.90;;;;;;5010900;28;20926;-52
2022/10/02 07:01:29;;;;;;;4.80;3.50;;;10.70;99.90;;;;;;5010640;28;20479;-51
2022/10/02 07:04:19;;;;;;;4.47;4.10;;;10.70;99.90;;;;;;5010252;28;20641;-51
2022/10/02 07:06:59;;;;;;;3.70;2.77;;;10.80;99.90;;;;;;5010662;28;20535;-51
2022/10/02 07:09:55;;;;;;;4.30;3.73;;;10.90;99.90;;;;;;5010649;28;20442;-51
2022/10/02 07:12:39;;;;;;;4.70;4.03;;;10.90;99.90;;;;;;5011104;28;20543;-51
2022/10/02 07:15:30;;;;;;;4.43;3.83;;;10.90;99.90;;;;;;5010890;28;20435;-51
2022/10/02 07:18:10;;;;;;;6.80;5.40;;;10.70;99.90;;;;;;5010445;28;20496;-51
2022/10/02 07:20:46;;;;;;;6.70;5.80;;;10.80;99.90;;;;;;5010279;28;20466;-51
2022/10/02 07:23:29;;;;;;;8.33;7.13;;;10.90;99.90;;;;;;5010027;28;20454;-51
2022/10/02 07:26:24;;;;;;;6.70;6.10;;;10.60;99.90;;;;;;5010358;28;20482;-51
2022/10/02 07:28:57;;;;;;;10.63;8.50;;;10.70;99.90;;;;;;5015344;28;20543;-51
2022/10/02 07:31:35;;;;;;;12.73;8.10;;;10.70;99.90;;;;;;5010181;28;20473;-51
2022/10/02 07:34:15;;;;;;;7.77;7.00;;;10.60;99.90;;;;;;5010297;28;20439;-51
2022/10/02 07:36:52;;;;;;;8.67;7.83;;;10.70;99.90;;;;;;5010250;28;20449;-51
2022/10/02 07:39:34;;;;;;;9.67;8.77;;;10.80;99.90;;;;;;5009664;28;20538;-52
2022/10/02 07:42:30;;;;;;;8.20;7.50;;;10.90;99.90;;;;;;5010158;28;20494;-51
2022/10/02 07:45:21;;;;;;;11.40;10.30;;;10.90;99.90;;;;;;5009871;28;20476;-52
2022/10/02 07:48:21;;;;;;;8.00;7.20;;;10.80;99.90;;;;;;5010116;28;20539;-51
2022/10/02 07:51:45;;;;;;;8.20;7.40;;;10.90;99.90;;;;;;5010836;28;20470;-51
2022/10/02 07:54:12;;;;;;;5.13;4.63;;;11.00;99.90;;;;;;5009659;28;20853;-53
2022/10/02 07:56:40;;;;;;;5.20;4.23;;;11.20;99.90;;;;;;5009929;28;20892;-51
2022/10/02 07:59:11;;;;;;;4.70;3.93;;;11.10;99.90;;;;;;5010089;28;20538;-51
2022/10/02 08:01:40;;;;;;;3.73;3.30;;;11.10;99.90;;;;;;5009833;28;20550;-51
2022/10/02 08:04:13;;;;;;;4.07;3.37;;;11.20;99.90;;;;;;5009659;28;20455;-51
2022/10/02 08:06:41;;;;;;;4.00;3.60;;;11.20;99.90;;;;;;5009539;28;20490;-51
2022/10/02 08:09:13;;;;;;;4.30;3.90;;;11.20;99.90;;;;;;5009764;28;20546;-52
2022/10/02 08:11:44;;;;;;;4.00;3.67;;;11.20;99.90;;;;;;5009690;28;20929;-51
2022/10/02 08:14:18;;;;;;;3.93;3.60;;;11.20;99.90;;;;;;5008551;28;20440;-51
2022/10/02 08:16:48;;;;;;;4.13;3.73;;;11.20;99.90;;;;;;5009421;28;20448;-52
2022/10/02 08:19:19;;;;;;;5.20;4.70;;;11.20;99.90;;;;;;5009605;28;20925;-51
2022/10/02 08:21:49;;;;;;;6.17;5.57;;;11.00;99.90;;;;;;5009590;28;20903;-51
2022/10/02 08:24:21;;;;;;;6.07;5.20;;;10.80;99.90;;;;;;5007838;28;20445;-51
2022/10/02 08:26:53;;;;;;;9.50;8.50;;;11.00;99.90;;;;;;4991087;28;20592;-52
2022/10/02 08:29:24;;;;;;;6.60;6.10;;;11.10;99.90;;;;;;4994115;28;20803;-51
2022/10/02 08:31:52;;;;;;;5.90;5.40;;;11.20;99.90;;;;;;4997596;28;20544;-52
2022/10/02 08:34:21;;;;;;;6.30;5.60;;;11.30;99.90;;;;;;4998703;28;20448;-52
2022/10/02 08:37:14;;;;;;;5.03;4.50;;;11.30;99.90;;;;;;4999274;28;20536;-54
2022/10/02 08:40:02;;;;;;;4.83;4.43;;;11.20;99.90;;;;;;4998834;28;20532;-52
2022/10/02 08:43:07;;;;;;;6.97;6.30;;;11.00;99.90;;;;;;4999956;28;20871;-52
2022/10/02 08:45:54;;;;;;;6.13;5.53;;;11.10;99.90;;;;;;4993882;28;20516;-51
2022/10/02 08:49:12;;;;;;;6.53;6.00;;;11.30;99.90;;;;;;4996539;28;20529;-54
2022/10/02 08:52:11;;;;;;;5.40;4.90;;;11.10;99.90;;;;;;5005628;28;20480;-54
2022/10/02 08:55:09;;;;;;;6.90;6.20;;;11.10;99.90;;;;;;4996195;28;20859;-52
2022/10/02 08:58:21;;;;;;;9.17;7.00;;;11.10;99.90;;;;;;4985724;28;20458;-52
2022/10/02 09:01:00;;;;;;;7.90;7.10;;;11.20;99.90;;;;;;4988482;28;20475;-54
2022/10/02 09:04:00;;;;;;;6.33;5.00;;;11.30;99.90;;;;;;4991568;28;20952;-51
2022/10/02 09:06:57;;;;;;;6.10;5.50;;;10.90;99.90;;;;;;4999276;28;20482;-52
2022/10/02 09:10:00;;;;;;;5.77;5.20;;;11.20;99.90;;;;;;4999706;28;20442;-51
2022/10/02 09:13:19;;;;;;;4.70;4.27;;;11.20;99.90;;;;;;5006161;28;20530;-52
2022/10/02 09:15:47;;;;;;;4.60;3.77;;;11.10;99.90;;;;;;4983980;28;20439;-52
2022/10/02 09:18:28;;;;;;;4.33;4.00;;;11.20;99.90;;;;;;4986026;28;20468;-51
2022/10/02 09:21:14;;;;;;;3.97;3.40;;;11.20;99.90;;;;;;4993320;28;20465;-52
2022/10/02 09:24:14;;;;;;;3.53;3.23;;;11.10;99.90;;;;;;4996394;28;20470;-51
2022/10/02 09:27:15;;;;;;;3.50;3.20;;;11.20;99.90;;;;;;4994648;28;20474;-51
2022/10/02 09:30:14;;;;;;;3.47;3.17;;;11.30;99.90;;;;;;4995853;28;20448;-52
2022/10/02 09:33:14;;;;;;;3.97;3.57;;;11.30;99.90;;;;;;4998055;28;20611;-51
2022/10/02 09:36:32;;;;;;;3.30;3.00;;;11.50;99.90;;;;;;5002603;28;20438;-51
2022/10/02 09:39:23;;;;;;;31.33;8.83;;;11.60;99.90;;;;;;5002184;28;20781;-51
2022/10/02 09:42:39;;;;;;;9.57;3.13;;;11.60;99.90;;;;;;5003373;28;20469;-51
2022/10/02 09:45:35;;;;;;;2.40;1.70;;;11.60;99.90;;;;;;5013075;28;20444;-52
2022/10/02 09:48:46;;;;;;;2.07;1.87;;;11.70;99.90;;;;;;5011521;28;20455;-52
2022/10/02 09:51:46;;;;;;;2.77;2.57;;;11.80;99.90;;;;;;5011732;28;20473;-53
2022/10/02 09:54:46;;;;;;;2.60;2.40;;;11.80;99.90;;;;;;5004650;28;20443;-52
2022/10/02 09:57:53;;;;;;;2.20;2.00;;;11.70;99.90;;;;;;5012256;28;20440;-52
2022/10/02 10:00:48;;;;;;;1.90;1.23;;;11.70;99.90;;;;;;5008253;28;20474;-51
2022/10/02 10:03:53;;;;;;;1.97;1.40;;;11.80;99.90;;;;;;4992987;28;20506;-51
2022/10/02 10:06:50;;;;;;;2.80;2.07;;;11.90;99.90;;;;;;5011648;28;20784;-52
2022/10/02 10:09:58;;;;;;;2.47;2.10;;;12.10;99.90;;;;;;5007399;28;20814;-51
2022/10/02 10:12:56;;;;;;;2.20;1.87;;;12.00;99.90;;;;;;5002050;28;20445;-51
2022/10/02 10:16:00;;;;;;;3.77;1.43;;;12.20;99.90;;;;;;5001241;28;20537;-51
2022/10/02 10:19:02;;;;;;;2.00;1.70;;;12.10;99.90;;;;;;5001573;28;20518;-52
2022/10/02 10:22:04;;;;;;;2.00;1.50;;;12.20;99.90;;;;;;4994173;28;20464;-51
2022/10/02 10:25:09;;;;;;;2.90;2.27;;;12.10;99.90;;;;;;4991696;28;20444;-51
2022/10/02 10:28:21;;;;;;;1.60;1.47;;;12.20;99.90;;;;;;4992039;28;20483;-51
2022/10/02 10:31:40;;;;;;;1.83;1.50;;;12.30;99.90;;;;;;4991242;28;20550;-50
2022/10/02 10:34:51;;;;;;;4.40;1.30;;;12.40;99.90;;;;;;4955983;28;20792;-51
2022/10/02 10:41:20;;;;;;;3.20;2.23;;;12.60;99.90;;;;;;4949753;28;20456;-51
2022/10/02 10:44:20;;;;;;;3.80;2.13;;;12.70;99.90;;;;;;4948193;28;20463;-53
2022/10/02 10:47:26;;;;;;;1.93;1.63;;;12.80;99.90;;;;;;4984885;28;20484;-51
2022/10/02 10:50:17;;;;;;;2.57;1.97;;;12.70;99.90;;;;;;4988947;28;20533;-51
2022/10/02 10:53:14;;;;;;;2.33;1.97;;;12.50;99.90;;;;;;4962949;28;20455;-51
2022/10/02 10:56:02;;;;;;;3.40;2.10;;;12.70;99.90;;;;;;4987454;28;20450;-50
2022/10/02 10:58:45;;;;;;;2.77;2.53;;;12.80;99.90;;;;;;4991219;28;20446;-51
2022/10/02 11:01:17;;;;;;;2.73;2.20;;;12.90;99.90;;;;;;4991751;28;20470;-50
2022/10/02 11:04:20;;;;;;;3.80;2.07;;;12.90;99.90;;;;;;4991614;28;20450;-53
2022/10/02 11:07:01;;;;;;;2.73;2.30;;;13.00;99.90;;;;;;4985967;28;20557;-51
2022/10/02 11:09:54;;;;;;;3.20;1.97;;;13.20;99.90;;;;;;4992428;28;20550;-51
2022/10/02 11:12:56;;;;;;;3.33;2.60;;;13.20;99.90;;;;;;4991044;28;20454;-51
2022/10/02 11:16:05;;;;;;;3.03;2.10;;;13.10;99.90;;;;;;4990869;28;20821;-51
2022/10/02 11:18:44;;;;;;;1.90;1.80;;;13.20;99.90;;;;;;4990956;28;20453;-51
2022/10/02 11:21:30;;;;;;;1.90;1.40;;;13.40;99.90;;;;;;4990671;28;20487;-53
2022/10/02 11:24:27;;;;;;;2.13;1.30;;;13.40;99.90;;;;;;4990615;28;20453;-51
2022/10/02 11:27:11;;;;;;;4.77;1.77;;;13.50;99.90;;;;;;4985997;28;20486;-52
2022/10/02 11:30:14;;;;;;;1.70;1.53;;;13.60;99.90;;;;;;4990513;28;20507;-51
2022/10/02 11:32:58;;;;;;;2.10;1.47;;;13.50;99.90;;;;;;4990743;28;20447;-51
2022/10/02 11:35:37;;;;;;;1.90;1.57;;;13.50;99.90;;;;;;4990694;28;20455;-51
2022/10/02 11:38:14;;;;;;;4.60;2.23;;;13.50;99.90;;;;;;4991070;28;20815;-51
2022/10/02 11:41:08;;;;;;;2.57;1.67;;;13.60;99.90;;;;;;4990763;28;20462;-52
2022/10/02 11:43:53;;;;;;;4.90;4.40;;;13.60;99.90;;;;;;4990263;28;20456;-52
2022/10/02 11:46:42;;;;;;;2.33;1.03;;;13.60;99.90;;;;;;4990077;28;20832;-51
2022/10/02 11:49:50;;;;;;;1.40;0.87;;;13.60;99.90;;;;;;4976632;28;20454;-53
2022/10/02 11:52:56;;;;;;;3.80;1.10;;;13.50;99.90;;;;;;4990360;28;20490;-51
2022/10/02 11:55:35;;;;;;;1.10;0.63;;;13.50;99.90;;;;;;4981560;28;20449;-51
2022/10/02 11:58:13;;;;;;;1.30;1.07;;;13.50;99.90;;;;;;4990643;28;20468;-51
2022/10/02 12:01:07;;;;;;;1.80;1.33;;;13.60;99.90;;;;;;4990216;28;20583;-51
2022/10/02 12:03:47;;;;;;;1.90;1.50;;;13.60;99.90;;;;;;4990674;28;20446;-51
2022/10/02 12:06:27;;;;;;;1.80;1.60;;;13.80;99.90;;;;;;4990144;28;20487;-53
2022/10/02 12:09:06;;;;;;;1.90;1.50;;;13.80;99.90;;;;;;4990035;28;20539;-52
2022/10/02 12:11:40;;;;;;;2.43;1.80;;;13.80;99.90;;;;;;4990209;28;20477;-53
2022/10/02 12:14:18;;;;;;;3.50;1.77;;;13.90;99.90;;;;;;4989909;28;20948;-52
2022/10/02 12:16:58;;;;;;;1.97;1.40;;;13.80;99.90;;;;;;4990055;28;20959;-52
2022/10/02 12:19:39;;;;;;;1.73;1.30;;;14.10;99.90;;;;;;4990095;28;20518;-51
2022/10/02 12:28:11;;;;;;;1.50;1.37;;;14.30;99.90;;;;;;4990619;28;20431;-53
2022/10/02 12:30:42;;;;;;;1.90;1.40;;;14.10;99.90;;;;;;4990210;28;20554;-54
2022/10/02 12:33:31;;;;;;;1.83;1.33;;;14.10;99.90;;;;;;4989514;28;20811;-52
2022/10/02 12:36:20;;;;;;;1.63;1.10;;;14.00;99.90;;;;;;4990989;28;20844;-52
2022/10/02 12:38:59;;;;;;;2.03;1.40;;;13.90;99.90;;;;;;4987520;28;20451;-53
2022/10/02 12:41:46;;;;;;;1.57;1.20;;;14.00;99.90;;;;;;4991237;28;20459;-52
2022/10/02 12:44:42;;;;;;;2.17;1.70;;;14.00;99.90;;;;;;4991422;28;20949;-53
2022/10/02 12:47:53;;;;;;;2.50;1.90;;;13.90;99.90;;;;;;4990178;28;20494;-53
2022/10/02 12:50:39;;;;;;;2.27;1.87;;;13.70;99.90;;;;;;4989766;28;20478;-52
2022/10/02 12:53:43;;;;;;;1.90;1.70;;;13.70;99.90;;;;;;4989101;28;20454;-52
2022/10/02 12:56:59;;;;;;;2.10;1.90;;;13.80;99.90;;;;;;4989275;28;20480;-54
2022/10/02 12:59:33;;;;;;;2.47;1.60;;;13.90;99.90;;;;;;4989610;28;20497;-52
2022/10/02 13:02:27;;;;;;;1.83;1.47;;;13.90;99.90;;;;;;4989644;28;20489;-52
2022/10/02 13:05:17;;;;;;;1.70;1.33;;;13.90;99.90;;;;;;4989199;28;20487;-52
2022/10/02 13:08:12;;;;;;;2.80;2.20;;;13.90;99.90;;;;;;4989067;28;20479;-51
2022/10/02 13:10:45;;;;;;;2.60;2.20;;;14.00;99.90;;;;;;4989306;28;20471;-51
2022/10/02 13:13:34;;;;;;;2.87;1.80;;;14.20;99.90;;;;;;4989361;28;20543;-51
2022/10/02 13:16:07;;;;;;;3.00;2.20;;;14.20;99.90;;;;;;4989187;28;20497;-53
2022/10/02 13:18:49;;;;;;;1.90;1.60;;;14.10;99.90;;;;;;4989329;28;20444;-52
2022/10/02 13:21:24;;;;;;;2.60;1.93;;;14.10;99.90;;;;;;4988970;28;20504;-52
2022/10/02 13:24:07;;;;;;;2.03;1.63;;;14.10;99.90;;;;;;4989102;28;20440;-52
2022/10/02 13:26:41;;;;;;;2.33;1.97;;;14.10;99.90;;;;;;4989253;28;20483;-52
2022/10/02 13:29:33;;;;;;;2.33;1.87;;;14.00;99.90;;;;;;4988953;28;20972;-51
2022/10/02 13:32:17;;;;;;;1.83;1.50;;;13.80;99.90;;;;;;4986543;28;20841;-53
2022/10/02 13:35:00;;;;;;;2.23;1.60;;;13.70;99.90;;;;;;4988723;28;20453;-51
2022/10/02 13:37:39;;;;;;;2.00;1.40;;;13.70;99.90;;;;;;4988715;28;20439;-51
2022/10/02 13:40:24;;;;;;;2.80;1.70;;;13.80;99.90;;;;;;4989248;28;20440;-53
2022/10/02 13:43:11;;;;;;;2.67;1.93;;;13.60;99.90;;;;;;4988789;28;20451;-55
2022/10/02 13:45:43;;;;;;;3.10;2.20;;;13.60;99.90;;;;;;4988379;28;20474;-53
2022/10/02 13:48:17;;;;;;;2.37;1.50;;;13.70;99.90;;;;;;4988794;28;20907;-52
2022/10/02 13:50:52;;;;;;;1.90;1.70;;;13.70;99.90;;;;;;5019648;23;20490;-49
2022/10/02 13:53:58;;;;;;;1.80;1.60;;;13.70;99.90;;;;;;5027423;28;20442;-48
2022/10/02 13:56:37;;;;;;;2.53;1.60;;;13.70;99.90;;;;;;5039591;28;20950;-48
2022/10/02 13:59:17;;;;;;;2.40;1.80;;;13.80;99.90;;;;;;5028208;28;20441;-48
2022/10/02 14:02:00;;;;;;;2.20;1.70;;;13.70;99.90;;;;;;5027820;28;20470;-49
2022/10/02 14:04:43;;;;;;;2.30;2.10;;;13.70;99.90;;;;;;5027508;28;20440;-48
2022/10/02 14:07:22;;;;;;;1.80;1.60;;;13.80;99.90;;;;;;5027323;28;20477;-48
2022/10/02 14:09:59;;;;;;;1.73;1.40;;;14.00;99.90;;;;;;5027598;28;20800;-50